sensor_id;sensor_type;location;lat;lon;timestamp;temperature;humidity
69162;DHT22;56269;51.738;21.652;2023-09-07T00:01:46;11.67;99.99
69162;DHT22;56269;51.738;21.652;2023-09-07T00:04:13;11.79;99.99
69162;DHT22;56269;51.738;21.652;2023-09-07T00:06:40;11.76;99.99
69162;DHT22;56269;51.738;21.652;2023-09-07T00:09:09;11.82;99.99
69162;DHT22;56269;51.738;21.652;2023-09-07T00:11:37;11.83;99.99
69162;DHT22;56269;51.738;21.652;2023-09-07T00:14:04;11.77;99.99
69162;DHT22;56269;51.738;21.652;2023-09-07T00:16:33;11.79;99.99
69162;DHT22;56269;51.738;21.652;2023-09-07T00:19:05;11.67;99.99
69162;DHT22;56269;51.738;21.652;2023-09-07T00:21:31;11.67;99.99
69162;DHT22;56269;51.738;21.652;2023-09-07T00:23:57;11.67;99.99
69162;DHT22;56269;51.738;21.652;2023-09-07T00:26:23;11.69;99.99
69162;DHT22;56269;51.738;21.652;2023-09-07T00:28:49;11.67;99.99
69162;DHT22;56269;51.738;21.652;2023-09-07T00:31:15;11.63;99.99
69162;DHT22;56269;51.738;21.652;2023-09-07T00:33:42;11.62;99.99
69162;DHT22;56269;51.738;21.652;2023-09-07T00:36:08;11.66;99.99
69162;DHT22;56269;51.738;21.652;2023-09-07T00:38:34;11.63;99.99
69162;DHT22;56269;51.738;21.652;2023-09-07T00:41:00;11.66;99.99
69162;DHT22;56269;51.738;21.652;2023-09-07T00:43:26;11.62;99.99
69162;DHT22;56269;51.738;21.652;2023-09-07T00:45:52;11.58;99.99
69162;DHT22;56269;51.738;21.652;2023-09-07T00:48:21;11.55;99.99
69162;DHT22;56269;51.738;21.652;2023-09-07T00:50:47;11.55;99.99
69162;DHT22;56269;51.738;21.652;2023-09-07T00:53:14;11.52;99.99
69162;DHT22;56269;51.738;21.652;2023-09-07T00:55:44;11.46;99.99
69162;DHT22;56269;51.738;21.652;2023-09-07T00:58:10;11.43;99.99
69162;DHT22;56269;51.738;21.652;2023-09-07T01:00:37;11.42;99.99
69162;DHT22;56269;51.738;21.652;2023-09-07T01:03:05;11.47;99.99
69162;DHT22;56269;51.738;21.652;2023-09-07T01:05:45;11.45;99.99
69162;DHT22;56269;51.738;21.652;2023-09-07T01:08:23;11.46;99.99
69162;DHT22;56269;51.738;21.652;2023-09-07T01:10:50;11.47;99.99
69162;DHT22;56269;51.738;21.652;2023-09-07T01:13:17;11.53;99.99
69162;DHT22;56269;51.738;21.652;2023-09-07T01:15:43;11.52;99.99
69162;DHT22;56269;51.738;21.652;2023-09-07T01:18:10;11.45;99.99
69162;DHT22;56269;51.738;21.652;2023-09-07T01:20:40;11.45;99.99
69162;DHT22;56269;51.738;21.652;2023-09-07T01:23:07;11.40;99.99
69162;DHT22;56269;51.738;21.652;2023-09-07T01:25:34;11.36;99.99
69162;DHT22;56269;51.738;21.652;2023-09-07T01:28:00;11.43;99.99
69162;DHT22;56269;51.738;21.652;2023-09-07T01:30:27;11.42;99.99
69162;DHT22;56269;51.738;21.652;2023-09-07T01:32:54;11.47;99.99
69162;DHT22;56269;51.738;21.652;2023-09-07T01:35:22;11.45;99.99
69162;DHT22;56269;51.738;21.652;2023-09-07T01:37:49;11.38;99.99
69162;DHT22;56269;51.738;21.652;2023-09-07T01:40:15;11.43;99.99
69162;DHT22;56269;51.738;21.652;2023-09-07T01:42:42;11.39;99.99
69162;DHT22;56269;51.738;21.652;2023-09-07T01:45:08;11.38;99.99
69162;DHT22;56269;51.738;21.652;2023-09-07T01:47:35;11.32;99.99
69162;DHT22;56269;51.738;21.652;2023-09-07T01:50:01;11.28;99.99
69162;DHT22;56269;51.738;21.652;2023-09-07T01:52:27;11.28;99.99
69162;DHT22;56269;51.738;21.652;2023-09-07T01:54:55;11.25;99.99
69162;DHT22;56269;51.738;21.652;2023-09-07T01:57:21;11.28;99.99
69162;DHT22;56269;51.738;21.652;2023-09-07T01:59:47;11.21;99.99
69162;DHT22;56269;51.738;21.652;2023-09-07T02:02:14;11.25;99.99
69162;DHT22;56269;51.738;21.652;2023-09-07T02:04:40;11.22;99.99
69162;DHT22;56269;51.738;21.652;2023-09-07T02:07:09;11.32;99.99
69162;DHT22;56269;51.738;21.652;2023-09-07T02:09:35;11.42;99.99
69162;DHT22;56269;51.738;21.652;2023-09-07T02:12:02;11.35;99.99
69162;DHT22;56269;51.738;21.652;2023-09-07T02:14:29;11.31;99.99
69162;DHT22;56269;51.738;21.652;2023-09-07T02:16:56;11.26;99.99
69162;DHT22;56269;51.738;21.652;2023-09-07T02:19:22;11.21;99.99
69162;DHT22;56269;51.738;21.652;2023-09-07T02:21:49;11.18;99.99
69162;DHT22;56269;51.738;21.652;2023-09-07T02:24:17;11.14;99.99
69162;DHT22;56269;51.738;21.652;2023-09-07T02:26:43;11.07;99.99
69162;DHT22;56269;51.738;21.652;2023-09-07T02:29:12;11.02;99.99
69162;DHT22;56269;51.738;21.652;2023-09-07T02:31:39;11.00;99.99
69162;DHT22;56269;51.738;21.652;2023-09-07T02:34:06;10.95;99.99
69162;DHT22;56269;51.738;21.652;2023-09-07T02:36:34;10.98;99.99
69162;DHT22;56269;51.738;21.652;2023-09-07T02:39:03;10.90;99.99
69162;DHT22;56269;51.738;21.652;2023-09-07T02:41:34;10.85;99.99
69162;DHT22;56269;51.738;21.652;2023-09-07T02:44:00;10.84;99.99
69162;DHT22;56269;51.738;21.652;2023-09-07T02:46:26;10.77;99.99
69162;DHT22;56269;51.738;21.652;2023-09-07T02:48:52;10.77;99.99
69162;DHT22;56269;51.738;21.652;2023-09-07T02:51:23;10.80;99.99
69162;DHT22;56269;51.738;21.652;2023-09-07T02:53:50;10.87;99.99
69162;DHT22;56269;51.738;21.652;2023-09-07T02:56:17;10.88;99.99
69162;DHT22;56269;51.738;21.652;2023-09-07T02:58:43;10.84;99.99
69162;DHT22;56269;51.738;21.652;2023-09-07T03:01:11;10.75;99.99
69162;DHT22;56269;51.738;21.652;2023-09-07T03:03:38;10.72;99.99
69162;DHT22;56269;51.738;21.652;2023-09-07T03:06:11;10.78;99.99
69162;DHT22;56269;51.738;21.652;2023-09-07T03:08:37;10.80;99.99
69162;DHT22;56269;51.738;21.652;2023-09-07T03:11:04;10.81;99.99
69162;DHT22;56269;51.738;21.652;2023-09-07T03:13:31;10.80;99.99
69162;DHT22;56269;51.738;21.652;2023-09-07T03:15:58;10.80;99.99
69162;DHT22;56269;51.738;21.652;2023-09-07T03:18:24;10.75;99.99
69162;DHT22;56269;51.738;21.652;2023-09-07T03:20:53;10.74;99.99
69162;DHT22;56269;51.738;21.652;2023-09-07T03:23:20;10.87;99.99
69162;DHT22;56269;51.738;21.652;2023-09-07T03:25:46;10.90;99.99
69162;DHT22;56269;51.738;21.652;2023-09-07T03:28:12;10.87;99.99
69162;DHT22;56269;51.738;21.652;2023-09-07T03:30:38;10.81;99.99
69162;DHT22;56269;51.738;21.652;2023-09-07T03:33:05;10.80;99.99
69162;DHT22;56269;51.738;21.652;2023-09-07T03:35:32;10.82;99.99
69162;DHT22;56269;51.738;21.652;2023-09-07T03:37:58;10.77;99.99
69162;DHT22;56269;51.738;21.652;2023-09-07T03:40:24;10.77;99.99
69162;DHT22;56269;51.738;21.652;2023-09-07T03:42:50;10.78;99.99
69162;DHT22;56269;51.738;21.652;2023-09-07T03:45:17;10.80;99.99
69162;DHT22;56269;51.738;21.652;2023-09-07T03:47:43;10.82;99.99
69162;DHT22;56269;51.738;21.652;2023-09-07T03:50:10;10.85;99.99
69162;DHT22;56269;51.738;21.652;2023-09-07T03:52:36;10.81;99.99
69162;DHT22;56269;51.738;21.652;2023-09-07T03:55:03;10.78;99.99
69162;DHT22;56269;51.738;21.652;2023-09-07T03:57:29;10.78;99.99
69162;DHT22;56269;51.738;21.652;2023-09-07T03:59:56;10.80;99.99
69162;DHT22;56269;51.738;21.652;2023-09-07T04:02:23;10.85;99.99
69162;DHT22;56269;51.738;21.652;2023-09-07T04:04:51;10.84;99.99
69162;DHT22;56269;51.738;21.652;2023-09-07T04:07:17;10.90;99.99
69162;DHT22;56269;51.738;21.652;2023-09-07T04:09:46;10.90;99.99
69162;DHT22;56269;51.738;21.652;2023-09-07T04:12:12;10.91;99.99
69162;DHT22;56269;51.738;21.652;2023-09-07T04:14:39;11.01;99.99
69162;DHT22;56269;51.738;21.652;2023-09-07T04:17:06;11.00;99.99
69162;DHT22;56269;51.738;21.652;2023-09-07T04:19:32;11.05;99.99
69162;DHT22;56269;51.738;21.652;2023-09-07T04:21:58;11.12;99.99
69162;DHT22;56269;51.738;21.652;2023-09-07T04:24:25;11.14;99.99
69162;DHT22;56269;51.738;21.652;2023-09-07T04:26:53;11.12;99.99
69162;DHT22;56269;51.738;21.652;2023-09-07T04:29:19;11.18;99.99
69162;DHT22;56269;51.738;21.652;2023-09-07T04:31:45;11.28;99.99
69162;DHT22;56269;51.738;21.652;2023-09-07T04:34:11;11.33;99.99
69162;DHT22;56269;51.738;21.652;2023-09-07T04:36:37;11.36;99.99
69162;DHT22;56269;51.738;21.652;2023-09-07T04:39:06;11.40;99.99
69162;DHT22;56269;51.738;21.652;2023-09-07T04:41:33;11.51;99.99
69162;DHT22;56269;51.738;21.652;2023-09-07T04:43:59;11.53;99.99
69162;DHT22;56269;51.738;21.652;2023-09-07T04:46:25;11.62;99.99
69162;DHT22;56269;51.738;21.652;2023-09-07T04:48:51;11.66;99.99
69162;DHT22;56269;51.738;21.652;2023-09-07T04:51:17;11.72;99.99
69162;DHT22;56269;51.738;21.652;2023-09-07T04:53:44;11.76;99.99
69162;DHT22;56269;51.738;21.652;2023-09-07T04:56:10;11.89;99.99
69162;DHT22;56269;51.738;21.652;2023-09-07T04:58:36;11.91;99.99
69162;DHT22;56269;51.738;21.652;2023-09-07T05:01:03;12.00;99.99
69162;DHT22;56269;51.738;21.652;2023-09-07T05:03:30;12.08;99.99
69162;DHT22;56269;51.738;21.652;2023-09-07T05:05:57;12.17;99.99
69162;DHT22;56269;51.738;21.652;2023-09-07T05:08:23;12.28;99.99
69162;DHT22;56269;51.738;21.652;2023-09-07T05:11:00;12.35;99.99
69162;DHT22;56269;51.738;21.652;2023-09-07T05:13:26;12.46;99.99
69162;DHT22;56269;51.738;21.652;2023-09-07T05:15:54;12.56;99.99
69162;DHT22;56269;51.738;21.652;2023-09-07T05:18:21;12.65;99.99
69162;DHT22;56269;51.738;21.652;2023-09-07T05:20:48;12.79;99.99
69162;DHT22;56269;51.738;21.652;2023-09-07T05:23:18;12.95;99.99
69162;DHT22;56269;51.738;21.652;2023-09-07T05:25:46;13.26;99.99
69162;DHT22;56269;51.738;21.652;2023-09-07T05:28:13;13.51;99.99
69162;DHT22;56269;51.738;21.652;2023-09-07T05:30:40;13.91;99.90
69162;DHT22;56269;51.738;21.652;2023-09-07T05:33:08;14.29;99.71
69162;DHT22;56269;51.738;21.652;2023-09-07T05:35:34;14.72;99.82
69162;DHT22;56269;51.738;21.652;2023-09-07T05:38:02;15.03;99.75
69162;DHT22;56269;51.738;21.652;2023-09-07T05:40:28;15.20;98.03
69162;DHT22;56269;51.738;21.652;2023-09-07T05:42:57;15.45;97.43
69162;DHT22;56269;51.738;21.652;2023-09-07T05:45:26;15.88;97.48
69162;DHT22;56269;51.738;21.652;2023-09-07T05:47:54;16.14;96.39
69162;DHT22;56269;51.738;21.652;2023-09-07T05:50:20;16.43;95.87
69162;DHT22;56269;51.738;21.652;2023-09-07T05:52:46;16.71;95.59
69162;DHT22;56269;51.738;21.652;2023-09-07T05:55:12;17.15;95.13
69162;DHT22;56269;51.738;21.652;2023-09-07T05:57:39;17.36;94.28
69162;DHT22;56269;51.738;21.652;2023-09-07T06:00:05;17.67;94.46
69162;DHT22;56269;51.738;21.652;2023-09-07T06:02:32;17.91;92.65
69162;DHT22;56269;51.738;21.652;2023-09-07T06:04:58;18.13;92.33
69162;DHT22;56269;51.738;21.652;2023-09-07T06:07:24;18.55;91.98
69162;DHT22;56269;51.738;21.652;2023-09-07T06:09:50;18.92;91.81
69162;DHT22;56269;51.738;21.652;2023-09-07T06:12:16;19.24;89.37
69162;DHT22;56269;51.738;21.652;2023-09-07T06:14:43;19.63;89.88
69162;DHT22;56269;51.738;21.652;2023-09-07T06:17:10;19.59;89.54
69162;DHT22;56269;51.738;21.652;2023-09-07T06:19:36;19.49;88.90
69162;DHT22;56269;51.738;21.652;2023-09-07T06:22:02;19.67;86.48
69162;DHT22;56269;51.738;21.652;2023-09-07T06:24:28;20.09;86.72
69162;DHT22;56269;51.738;21.652;2023-09-07T06:26:54;20.41;86.38
69162;DHT22;56269;51.738;21.652;2023-09-07T06:29:20;20.90;83.58
69162;DHT22;56269;51.738;21.652;2023-09-07T06:31:47;21.07;86.38
69162;DHT22;56269;51.738;21.652;2023-09-07T06:34:16;21.82;83.43
69162;DHT22;56269;51.738;21.652;2023-09-07T06:36:42;21.86;83.91
69162;DHT22;56269;51.738;21.652;2023-09-07T06:39:08;22.13;80.40
69162;DHT22;56269;51.738;21.652;2023-09-07T06:41:35;22.37;81.32
69162;DHT22;56269;51.738;21.652;2023-09-07T06:44:01;22.50;82.95
69162;DHT22;56269;51.738;21.652;2023-09-07T06:46:27;22.86;82.73
69162;DHT22;56269;51.738;21.652;2023-09-07T06:48:53;22.74;80.53
69162;DHT22;56269;51.738;21.652;2023-09-07T06:51:19;23.10;73.07
69162;DHT22;56269;51.738;21.652;2023-09-07T06:53:46;23.51;74.12
69162;DHT22;56269;51.738;21.652;2023-09-07T06:56:13;23.66;72.24
69162;DHT22;56269;51.738;21.652;2023-09-07T06:58:39;23.37;70.03
69162;DHT22;56269;51.738;21.652;2023-09-07T07:01:05;23.77;69.74
69162;DHT22;56269;51.738;21.652;2023-09-07T07:03:31;24.10;67.82
69162;DHT22;56269;51.738;21.652;2023-09-07T07:05:58;24.28;68.72
69162;DHT22;56269;51.738;21.652;2023-09-07T07:08:24;24.51;67.49
69162;DHT22;56269;51.738;21.652;2023-09-07T07:10:51;24.74;69.63
69162;DHT22;56269;51.738;21.652;2023-09-07T07:13:17;25.01;64.63
69162;DHT22;56269;51.738;21.652;2023-09-07T07:15:43;25.01;64.61
69162;DHT22;56269;51.738;21.652;2023-09-07T07:18:09;25.12;64.19
69162;DHT22;56269;51.738;21.652;2023-09-07T07:20:37;25.40;64.47
69162;DHT22;56269;51.738;21.652;2023-09-07T07:23:04;25.63;66.01
69162;DHT22;56269;51.738;21.652;2023-09-07T07:25:30;25.73;64.17
69162;DHT22;56269;51.738;21.652;2023-09-07T07:28:05;26.32;67.99
69162;DHT22;56269;51.738;21.652;2023-09-07T07:30:38;26.40;62.78
69162;DHT22;56269;51.738;21.652;2023-09-07T07:33:06;26.30;63.01
69162;DHT22;56269;51.738;21.652;2023-09-07T07:35:33;26.88;64.14
69162;DHT22;56269;51.738;21.652;2023-09-07T07:38:01;26.88;62.90
69162;DHT22;56269;51.738;21.652;2023-09-07T07:40:27;27.17;63.80
69162;DHT22;56269;51.738;21.652;2023-09-07T07:42:53;27.26;60.27
69162;DHT22;56269;51.738;21.652;2023-09-07T07:45:20;26.92;62.68
69162;DHT22;56269;51.738;21.652;2023-09-07T07:47:51;26.48;61.81
69162;DHT22;56269;51.738;21.652;2023-09-07T07:50:18;26.11;62.12
69162;DHT22;56269;51.738;21.652;2023-09-07T07:52:44;25.73;63.57
69162;DHT22;56269;51.738;21.652;2023-09-07T07:55:11;26.32;62.39
69162;DHT22;56269;51.738;21.652;2023-09-07T07:57:37;26.76;61.24
69162;DHT22;56269;51.738;21.652;2023-09-07T08:00:05;27.09;62.35
69162;DHT22;56269;51.738;21.652;2023-09-07T08:02:32;26.72;61.84
69162;DHT22;56269;51.738;21.652;2023-09-07T08:04:58;27.04;61.34
69162;DHT22;56269;51.738;21.652;2023-09-07T08:07:25;26.99;61.93
69162;DHT22;56269;51.738;21.652;2023-09-07T08:09:52;27.58;62.98
69162;DHT22;56269;51.738;21.652;2023-09-07T08:12:18;27.04;61.02
69162;DHT22;56269;51.738;21.652;2023-09-07T08:14:45;27.30;61.38
69162;DHT22;56269;51.738;21.652;2023-09-07T08:17:11;27.95;61.90
69162;DHT22;56269;51.738;21.652;2023-09-07T08:19:37;28.02;60.71
69162;DHT22;56269;51.738;21.652;2023-09-07T08:22:04;27.23;59.39
69162;DHT22;56269;51.738;21.652;2023-09-07T08:24:32;27.13;62.16
69162;DHT22;56269;51.738;21.652;2023-09-07T08:26:58;27.03;62.44
69162;DHT22;56269;51.738;21.652;2023-09-07T08:29:26;27.61;63.17
69162;DHT22;56269;51.738;21.652;2023-09-07T08:31:55;28.35;63.15
69162;DHT22;56269;51.738;21.652;2023-09-07T08:34:23;27.17;60.89
69162;DHT22;56269;51.738;21.652;2023-09-07T08:36:49;26.79;62.03
69162;DHT22;56269;51.738;21.652;2023-09-07T08:39:20;26.52;63.35
69162;DHT22;56269;51.738;21.652;2023-09-07T08:41:46;26.22;61.91
69162;DHT22;56269;51.738;21.652;2023-09-07T08:44:16;26.69;62.29
69162;DHT22;56269;51.738;21.652;2023-09-07T08:46:44;27.04;63.15
69162;DHT22;56269;51.738;21.652;2023-09-07T08:49:11;27.41;62.21
69162;DHT22;56269;51.738;21.652;2023-09-07T08:51:38;27.50;60.93
69162;DHT22;56269;51.738;21.652;2023-09-07T08:54:05;27.97;59.24
69162;DHT22;56269;51.738;21.652;2023-09-07T08:56:31;27.84;58.09
69162;DHT22;56269;51.738;21.652;2023-09-07T08:58:57;27.36;57.27
69162;DHT22;56269;51.738;21.652;2023-09-07T09:01:24;26.55;60.96
69162;DHT22;56269;51.738;21.652;2023-09-07T09:03:50;27.26;59.87
69162;DHT22;56269;51.738;21.652;2023-09-07T09:06:19;28.28;60.52
69162;DHT22;56269;51.738;21.652;2023-09-07T09:08:47;28.33;56.68
69162;DHT22;56269;51.738;21.652;2023-09-07T09:11:17;27.24;59.35
69162;DHT22;56269;51.738;21.652;2023-09-07T09:13:44;27.41;58.47
69162;DHT22;56269;51.738;21.652;2023-09-07T09:16:11;27.97;57.82
69162;DHT22;56269;51.738;21.652;2023-09-07T09:18:38;27.71;60.23
69162;DHT22;56269;51.738;21.652;2023-09-07T09:21:05;28.43;59.21
69162;DHT22;56269;51.738;21.652;2023-09-07T09:23:35;28.89;58.86
69162;DHT22;56269;51.738;21.652;2023-09-07T09:26:05;28.46;58.16
69162;DHT22;56269;51.738;21.652;2023-09-07T09:28:32;28.84;55.06
69162;DHT22;56269;51.738;21.652;2023-09-07T09:31:00;28.96;55.85
69162;DHT22;56269;51.738;21.652;2023-09-07T09:33:26;29.13;54.20
69162;DHT22;56269;51.738;21.652;2023-09-07T09:35:54;28.62;55.96
69162;DHT22;56269;51.738;21.652;2023-09-07T09:38:20;29.37;55.94
69162;DHT22;56269;51.738;21.652;2023-09-07T09:40:46;29.58;56.48
69162;DHT22;56269;51.738;21.652;2023-09-07T09:43:13;29.51;56.59
69162;DHT22;56269;51.738;21.652;2023-09-07T09:45:39;29.23;54.68
69162;DHT22;56269;51.738;21.652;2023-09-07T09:48:06;29.41;55.97
69162;DHT22;56269;51.738;21.652;2023-09-07T09:50:33;29.50;53.68
69162;DHT22;56269;51.738;21.652;2023-09-07T09:53:08;29.66;54.36
69162;DHT22;56269;51.738;21.652;2023-09-07T09:55:34;29.62;55.02
69162;DHT22;56269;51.738;21.652;2023-09-07T09:58:01;29.54;55.13
69162;DHT22;56269;51.738;21.652;2023-09-07T10:00:28;29.23;56.28
69162;DHT22;56269;51.738;21.652;2023-09-07T10:03:02;28.19;56.48
69162;DHT22;56269;51.738;21.652;2023-09-07T10:05:31;27.73;57.95
69162;DHT22;56269;51.738;21.652;2023-09-07T10:08:02;27.44;59.13
69162;DHT22;56269;51.738;21.652;2023-09-07T10:10:37;27.09;60.39
69162;DHT22;56269;51.738;21.652;2023-09-07T10:13:05;26.93;59.72
69162;DHT22;56269;51.738;21.652;2023-09-07T10:15:32;26.62;65.05
69162;DHT22;56269;51.738;21.652;2023-09-07T10:18:11;26.58;62.01
69162;DHT22;56269;51.738;21.652;2023-09-07T10:20:51;27.90;58.11
69162;DHT22;56269;51.738;21.652;2023-09-07T10:23:19;28.63;53.70
69162;DHT22;56269;51.738;21.652;2023-09-07T10:25:50;29.47;53.14
69162;DHT22;56269;51.738;21.652;2023-09-07T10:28:24;28.48;54.40
69162;DHT22;56269;51.738;21.652;2023-09-07T10:31:04;28.72;55.00
69162;DHT22;56269;51.738;21.652;2023-09-07T10:33:32;29.06;54.65
69162;DHT22;56269;51.738;21.652;2023-09-07T10:35:59;28.82;53.19
69162;DHT22;56269;51.738;21.652;2023-09-07T10:38:25;28.79;53.51
69162;DHT22;56269;51.738;21.652;2023-09-07T10:40:57;29.35;54.36
69162;DHT22;56269;51.738;21.652;2023-09-07T10:43:28;29.99;52.58
69162;DHT22;56269;51.738;21.652;2023-09-07T10:45:55;30.98;50.45
69162;DHT22;56269;51.738;21.652;2023-09-07T10:48:23;30.84;49.92
69162;DHT22;56269;51.738;21.652;2023-09-07T10:50:50;30.39;50.79
69162;DHT22;56269;51.738;21.652;2023-09-07T10:53:28;29.10;54.35
69162;DHT22;56269;51.738;21.652;2023-09-07T10:55:57;28.01;55.67
69162;DHT22;56269;51.738;21.652;2023-09-07T10:58:29;27.07;58.76
69162;DHT22;56269;51.738;21.652;2023-09-07T11:00:56;26.61;60.28
69162;DHT22;56269;51.738;21.652;2023-09-07T11:03:24;25.96;61.55
69162;DHT22;56269;51.738;21.652;2023-09-07T11:06:09;25.63;62.28
69162;DHT22;56269;51.738;21.652;2023-09-07T11:08:36;25.30;63.90
69162;DHT22;56269;51.738;21.652;2023-09-07T11:11:03;25.18;64.99
69162;DHT22;56269;51.738;21.652;2023-09-07T11:13:30;25.28;66.55
69162;DHT22;56269;51.738;21.652;2023-09-07T11:15:58;25.12;64.80
69162;DHT22;56269;51.738;21.652;2023-09-07T11:18:25;25.07;66.67
69162;DHT22;56269;51.738;21.652;2023-09-07T11:20:52;24.99;65.80
69162;DHT22;56269;51.738;21.652;2023-09-07T11:23:20;25.12;65.43
69162;DHT22;56269;51.738;21.652;2023-09-07T11:25:47;26.07;64.40
69162;DHT22;56269;51.738;21.652;2023-09-07T11:28:18;26.17;63.74
69162;DHT22;56269;51.738;21.652;2023-09-07T11:30:54;26.27;60.91
69162;DHT22;56269;51.738;21.652;2023-09-07T11:33:22;27.58;58.33
69162;DHT22;56269;51.738;21.652;2023-09-07T11:35:48;28.42;56.27
69162;DHT22;56269;51.738;21.652;2023-09-07T11:38:16;28.84;56.82
69162;DHT22;56269;51.738;21.652;2023-09-07T11:40:43;29.18;55.17
69162;DHT22;56269;51.738;21.652;2023-09-07T11:43:13;29.21;53.52
69162;DHT22;56269;51.738;21.652;2023-09-07T11:45:41;29.90;54.43
69162;DHT22;56269;51.738;21.652;2023-09-07T11:48:07;30.06;53.16
69162;DHT22;56269;51.738;21.652;2023-09-07T11:50:37;28.09;54.44
69162;DHT22;56269;51.738;21.652;2023-09-07T11:53:04;29.57;53.15
69162;DHT22;56269;51.738;21.652;2023-09-07T11:55:31;29.85;52.24
69162;DHT22;56269;51.738;21.652;2023-09-07T11:57:58;30.12;50.61
69162;DHT22;56269;51.738;21.652;2023-09-07T12:00:24;30.66;52.50
69162;DHT22;56269;51.738;21.652;2023-09-07T12:02:50;29.43;51.93
69162;DHT22;56269;51.738;21.652;2023-09-07T12:05:16;28.51;54.12
69162;DHT22;56269;51.738;21.652;2023-09-07T12:07:44;29.00;52.92
69162;DHT22;56269;51.738;21.652;2023-09-07T12:10:12;28.86;54.39
69162;DHT22;56269;51.738;21.652;2023-09-07T12:12:43;28.66;53.70
69162;DHT22;56269;51.738;21.652;2023-09-07T12:15:12;28.45;55.27
69162;DHT22;56269;51.738;21.652;2023-09-07T12:17:38;28.72;53.70
69162;DHT22;56269;51.738;21.652;2023-09-07T12:20:05;28.67;54.10
69162;DHT22;56269;51.738;21.652;2023-09-07T12:22:37;28.87;52.66
69162;DHT22;56269;51.738;21.652;2023-09-07T12:25:05;29.03;54.64
69162;DHT22;56269;51.738;21.652;2023-09-07T12:27:36;29.34;52.20
69162;DHT22;56269;51.738;21.652;2023-09-07T12:30:03;29.88;49.79
69162;DHT22;56269;51.738;21.652;2023-09-07T12:32:32;30.33;49.94
69162;DHT22;56269;51.738;21.652;2023-09-07T12:34:59;30.66;50.15
69162;DHT22;56269;51.738;21.652;2023-09-07T12:37:25;30.63;48.69
69162;DHT22;56269;51.738;21.652;2023-09-07T12:39:52;30.06;49.45
69162;DHT22;56269;51.738;21.652;2023-09-07T12:42:18;30.81;49.01
69162;DHT22;56269;51.738;21.652;2023-09-07T12:44:45;30.59;49.44
69162;DHT22;56269;51.738;21.652;2023-09-07T12:47:11;30.76;49.71
69162;DHT22;56269;51.738;21.652;2023-09-07T12:49:38;30.91;50.98
69162;DHT22;56269;51.738;21.652;2023-09-07T12:52:04;30.64;48.14
69162;DHT22;56269;51.738;21.652;2023-09-07T12:54:35;30.83;45.72
69162;DHT22;56269;51.738;21.652;2023-09-07T12:57:03;31.27;46.27
69162;DHT22;56269;51.738;21.652;2023-09-07T12:59:29;31.83;46.64
69162;DHT22;56269;51.738;21.652;2023-09-07T13:01:55;32.41;46.14
69162;DHT22;56269;51.738;21.652;2023-09-07T13:04:22;32.20;45.15
69162;DHT22;56269;51.738;21.652;2023-09-07T13:06:48;31.34;46.29
69162;DHT22;56269;51.738;21.652;2023-09-07T13:09:14;30.86;47.81
69162;DHT22;56269;51.738;21.652;2023-09-07T13:11:40;31.19;46.58
69162;DHT22;56269;51.738;21.652;2023-09-07T13:14:06;30.25;49.12
69162;DHT22;56269;51.738;21.652;2023-09-07T13:16:34;29.68;53.92
69162;DHT22;56269;51.738;21.652;2023-09-07T13:19:00;29.55;53.01
69162;DHT22;56269;51.738;21.652;2023-09-07T13:21:26;28.83;54.18
69162;DHT22;56269;51.738;21.652;2023-09-07T13:23:52;27.81;57.70
69162;DHT22;56269;51.738;21.652;2023-09-07T13:26:18;27.54;58.31
69162;DHT22;56269;51.738;21.652;2023-09-07T13:28:45;27.30;58.35
69162;DHT22;56269;51.738;21.652;2023-09-07T13:31:11;26.82;60.25
69162;DHT22;56269;51.738;21.652;2023-09-07T13:33:37;26.51;60.71
69162;DHT22;56269;51.738;21.652;2023-09-07T13:36:03;25.93;62.47
69162;DHT22;56269;51.738;21.652;2023-09-07T13:38:30;26.10;62.14
69162;DHT22;56269;51.738;21.652;2023-09-07T13:40:56;26.14;62.93
69162;DHT22;56269;51.738;21.652;2023-09-07T13:43:22;26.13;61.93
69162;DHT22;56269;51.738;21.652;2023-09-07T13:45:48;25.86;64.68
69162;DHT22;56269;51.738;21.652;2023-09-07T13:48:15;25.89;62.67
69162;DHT22;56269;51.738;21.652;2023-09-07T13:50:41;25.56;63.72
69162;DHT22;56269;51.738;21.652;2023-09-07T13:53:08;25.51;63.55
69162;DHT22;56269;51.738;21.652;2023-09-07T13:55:34;25.47;64.28
69162;DHT22;56269;51.738;21.652;2023-09-07T13:58:01;25.29;64.93
69162;DHT22;56269;51.738;21.652;2023-09-07T14:00:27;25.22;66.86
69162;DHT22;56269;51.738;21.652;2023-09-07T14:02:54;25.20;67.28
69162;DHT22;56269;51.738;21.652;2023-09-07T14:05:20;25.19;66.67
69162;DHT22;56269;51.738;21.652;2023-09-07T14:07:46;25.71;67.27
69162;DHT22;56269;51.738;21.652;2023-09-07T14:10:13;26.17;64.70
69162;DHT22;56269;51.738;21.652;2023-09-07T14:12:39;26.78;63.12
69162;DHT22;56269;51.738;21.652;2023-09-07T14:15:06;27.24;62.08
69162;DHT22;56269;51.738;21.652;2023-09-07T14:17:32;27.60;62.98
69162;DHT22;56269;51.738;21.652;2023-09-07T14:19:58;28.00;60.28
69162;DHT22;56269;51.738;21.652;2023-09-07T14:22:25;27.88;56.15
69162;DHT22;56269;51.738;21.652;2023-09-07T14:24:50;27.88;56.47
69162;DHT22;56269;51.738;21.652;2023-09-07T14:27:17;27.87;56.80
69162;DHT22;56269;51.738;21.652;2023-09-07T14:29:43;28.06;57.86
69162;DHT22;56269;51.738;21.652;2023-09-07T14:32:09;28.18;55.53
69162;DHT22;56269;51.738;21.652;2023-09-07T14:34:36;28.21;55.89
69162;DHT22;56269;51.738;21.652;2023-09-07T14:37:03;28.31;54.93
69162;DHT22;56269;51.738;21.652;2023-09-07T14:39:29;28.62;55.38
69162;DHT22;56269;51.738;21.652;2023-09-07T14:41:55;28.12;55.75
69162;DHT22;56269;51.738;21.652;2023-09-07T14:44:22;28.59;56.76
69162;DHT22;56269;51.738;21.652;2023-09-07T14:46:48;28.11;54.51
69162;DHT22;56269;51.738;21.652;2023-09-07T14:49:16;28.35;54.96
69162;DHT22;56269;51.738;21.652;2023-09-07T14:51:46;28.46;57.63
69162;DHT22;56269;51.738;21.652;2023-09-07T14:54:13;28.41;56.43
69162;DHT22;56269;51.738;21.652;2023-09-07T14:56:39;28.48;55.84
69162;DHT22;56269;51.738;21.652;2023-09-07T14:59:06;28.36;54.96
69162;DHT22;56269;51.738;21.652;2023-09-07T15:01:33;28.35;56.31
69162;DHT22;56269;51.738;21.652;2023-09-07T15:04:00;28.21;54.55
69162;DHT22;56269;51.738;21.652;2023-09-07T15:06:27;28.18;56.33
69162;DHT22;56269;51.738;21.652;2023-09-07T15:08:53;28.02;55.78
69162;DHT22;56269;51.738;21.652;2023-09-07T15:11:21;27.88;55.30
69162;DHT22;56269;51.738;21.652;2023-09-07T15:13:48;27.68;55.46
69162;DHT22;56269;51.738;21.652;2023-09-07T15:16:16;27.73;54.88